createdAt,value
2019-06-19T00:01:46.839Z,99.90
2019-06-19T00:04:27.393Z,99.90
2019-06-19T00:07:08.081Z,99.90
2019-06-19T00:09:49.328Z,99.90
2019-06-19T00:12:30.375Z,99.90
2019-06-19T00:15:13.126Z,99.90
2019-06-19T00:17:53.816Z,99.90
2019-06-19T00:20:34.723Z,99.90
2019-06-19T00:23:15.499Z,99.90
2019-06-19T00:25:56.214Z,99.90
2019-06-19T00:28:37.111Z,99.90
2019-06-19T00:31:18.052Z,99.90
2019-06-19T00:33:58.396Z,99.90
2019-06-19T00:36:41.793Z,99.90
2019-06-19T00:42:34.171Z,99.90
2019-06-19T00:45:14.948Z,99.90
2019-06-19T00:47:55.440Z,99.90
2019-06-19T00:50:36.023Z,99.90
2019-06-19T00:53:16.739Z,99.90
2019-06-19T00:56:01.133Z,99.90
2019-06-19T00:58:41.962Z,99.90
2019-06-19T01:01:22.214Z,99.90
2019-06-19T01:04:02.693Z,99.90
2019-06-19T01:06:43.112Z,99.90
2019-06-19T01:09:24.173Z,99.90
2019-06-19T01:12:04.881Z,99.90
2019-06-19T01:14:45.503Z,99.90
2019-06-19T01:17:26.471Z,99.90
2019-06-19T01:20:07.196Z,99.90
2019-06-19T01:22:47.948Z,99.90
2019-06-19T01:25:30.884Z,99.90
2019-06-19T01:28:11.739Z,99.90
2019-06-19T01:30:52.766Z,99.90
2019-06-19T01:33:33.496Z,99.90
2019-06-19T01:36:13.905Z,99.90
2019-06-19T01:38:54.719Z,99.90
2019-06-19T01:41:35.107Z,99.90
2019-06-19T01:44:15.655Z,99.90
2019-06-19T01:46:56.067Z,99.90
2019-06-19T01:49:36.852Z,99.90
2019-06-19T01:52:17.764Z,99.90
2019-06-19T01:55:01.137Z,99.90
2019-06-19T01:57:41.424Z,99.90
2019-06-19T02:00:32.094Z,99.90
2019-06-19T02:03:04.623Z,99.90
2019-06-19T02:05:45.256Z,99.90
2019-06-19T02:08:26.055Z,99.90
2019-06-19T02:11:06.932Z,99.90
2019-06-19T02:13:47.123Z,99.90
2019-06-19T02:16:30.879Z,99.90
2019-06-19T02:19:11.533Z,99.90
2019-06-19T02:21:52.835Z,99.90
2019-06-19T02:24:33.671Z,99.90
2019-06-19T02:27:13.885Z,99.90
2019-06-19T02:29:54.032Z,99.90
2019-06-19T02:32:35.933Z,99.90
2019-06-19T02:35:17.060Z,99.90
2019-06-19T02:37:57.644Z,99.90
2019-06-19T02:40:40.625Z,99.90
2019-06-19T02:43:20.387Z,99.90
2019-06-19T02:46:00.751Z,99.90
2019-06-19T02:48:41.259Z,99.90
2019-06-19T02:51:21.639Z,99.90
2019-06-19T02:54:02.041Z,99.90
2019-06-19T02:56:42.464Z,99.90
2019-06-19T02:59:23.425Z,99.90
2019-06-19T03:02:03.848Z,99.90
2019-06-19T03:04:44.688Z,99.90
2019-06-19T03:07:23.638Z,99.90
2019-06-19T03:10:11.498Z,99.90
2019-06-19T03:13:01.110Z,99.90
2019-06-19T03:15:48.835Z,99.90
2019-06-19T03:18:36.555Z,99.90
2019-06-19T03:21:24.283Z,99.90
2019-06-19T03:24:12.010Z,99.90
2019-06-19T03:26:52.368Z,99.90
2019-06-19T03:29:32.831Z,99.90
2019-06-19T03:32:13.549Z,99.90
2019-06-19T03:34:54.369Z,99.90
2019-06-19T03:37:35.260Z,99.90
2019-06-19T03:40:15.971Z,99.90
2019-06-19T03:42:56.497Z,99.90
2019-06-19T03:45:37.137Z,99.90
2019-06-19T03:48:18.031Z,99.90
2019-06-19T03:50:58.450Z,99.90
2019-06-19T03:53:39.296Z,99.90
2019-06-19T03:56:20.336Z,99.90
2019-06-19T03:59:00.728Z,99.90
2019-06-19T04:01:49.322Z,99.90
2019-06-19T04:04:23.525Z,99.90
2019-06-19T04:07:04.258Z,99.90
2019-06-19T04:09:45.313Z,99.90
2019-06-19T04:12:26.061Z,99.90
2019-06-19T04:15:06.624Z,99.90
2019-06-19T04:17:47.287Z,99.90
2019-06-19T04:20:28.379Z,99.90
2019-06-19T04:23:09.059Z,99.90
2019-06-19T04:25:49.680Z,99.90
2019-06-19T04:28:52.331Z,99.90
2019-06-19T04:31:32.529Z,99.90
2019-06-19T04:34:13.126Z,99.90
2019-06-19T04:36:53.545Z,99.90
2019-06-19T04:39:34.031Z,99.90
2019-06-19T04:42:14.343Z,99.90
2019-06-19T04:44:54.869Z,99.90
2019-06-19T04:47:36.036Z,99.90
2019-06-19T04:50:16.453Z,99.90
2019-06-19T04:52:57.286Z,99.90
2019-06-19T04:55:38.095Z,99.90
2019-06-19T04:58:18.444Z,99.90
2019-06-19T05:00:58.925Z,99.90
2019-06-19T05:03:39.674Z,99.90
2019-06-19T05:06:20.237Z,99.90
2019-06-19T05:09:01.168Z,99.90
2019-06-19T05:11:41.780Z,99.90
2019-06-19T05:14:22.892Z,99.90
2019-06-19T05:17:03.577Z,99.90
2019-06-19T05:19:44.005Z,99.90
2019-06-19T05:22:24.335Z,99.90
2019-06-19T05:25:05.223Z,99.90
2019-06-19T05:27:46.077Z,99.90
2019-06-19T05:30:26.725Z,99.90
2019-06-19T05:33:07.649Z,99.90
2019-06-19T05:35:48.148Z,99.90
2019-06-19T05:38:28.852Z,99.90
2019-06-19T05:41:09.752Z,99.90
2019-06-19T05:43:50.918Z,99.90
2019-06-19T05:46:31.308Z,99.90
2019-06-19T05:49:11.660Z,99.90
2019-06-19T05:51:52.246Z,99.90
2019-06-19T05:54:32.807Z,99.90
2019-06-19T05:57:13.807Z,99.90
2019-06-19T05:59:55.850Z,99.90
2019-06-19T06:02:48.554Z,99.90
2019-06-19T06:05:18.710Z,99.90
2019-06-19T06:08:00.063Z,99.90
2019-06-19T06:10:40.843Z,99.90
2019-06-19T06:13:21.664Z,99.90
2019-06-19T06:16:02.364Z,99.90
2019-06-19T06:18:43.015Z,99.90
2019-06-19T06:24:27.997Z,99.90
2019-06-19T06:27:09.002Z,99.90
2019-06-19T06:29:49.681Z,99.90
2019-06-19T06:32:30.156Z,99.90
2019-06-19T06:35:10.553Z,99.90
2019-06-19T06:37:51.549Z,99.90
2019-06-19T06:40:47.189Z,99.90
2019-06-19T06:43:14.739Z,99.90
2019-06-19T06:45:55.236Z,99.90
2019-06-19T06:48:36.440Z,99.90
2019-06-19T06:51:16.776Z,99.90
2019-06-19T06:54:05.060Z,99.90
2019-06-19T06:56:45.560Z,99.90
2019-06-19T06:59:26.275Z,99.90
2019-06-19T07:02:06.632Z,99.90
2019-06-19T07:04:47.467Z,99.90
2019-06-19T07:07:28.113Z,99.90
2019-06-19T07:10:09.007Z,99.90
2019-06-19T07:12:50.034Z,99.90
2019-06-19T07:15:30.820Z,99.90
2019-06-19T07:18:12.449Z,99.90
2019-06-19T07:20:53.228Z,99.90
2019-06-19T07:23:34.236Z,99.90
2019-06-19T07:26:14.802Z,99.90
2019-06-19T07:28:55.260Z,99.90
2019-06-19T07:31:36.333Z,99.90
2019-06-19T07:34:16.900Z,99.90
2019-06-19T07:36:57.544Z,99.90
2019-06-19T07:39:37.963Z,99.90
2019-06-19T07:42:18.860Z,99.90
2019-06-19T07:44:59.672Z,99.90
2019-06-19T07:47:40.441Z,99.90
2019-06-19T07:50:20.866Z,99.90
2019-06-19T07:53:01.777Z,99.90
2019-06-19T07:55:42.394Z,99.90
2019-06-19T07:58:23.387Z,99.90
2019-06-19T08:01:03.937Z,99.90
2019-06-19T08:03:56.981Z,99.90
2019-06-19T08:06:27.464Z,99.90
2019-06-19T08:09:08.043Z,99.90
2019-06-19T08:11:48.504Z,99.90
2019-06-19T08:14:29.339Z,99.90
2019-06-19T08:17:10.320Z,99.90
2019-06-19T08:19:50.917Z,99.90
2019-06-19T08:22:31.409Z,99.90
2019-06-19T08:25:11.842Z,99.90
2019-06-19T08:27:52.657Z,99.90
2019-06-19T08:30:33.568Z,99.90
2019-06-19T08:33:14.392Z,99.90
2019-06-19T08:35:55.299Z,99.90
2019-06-19T08:38:35.767Z,99.90
2019-06-19T08:41:16.583Z,99.90
2019-06-19T08:43:57.507Z,99.90
2019-06-19T08:46:38.452Z,99.90
2019-06-19T08:49:19.294Z,99.90
2019-06-19T08:51:59.892Z,99.90
2019-06-19T08:54:40.190Z,99.90
2019-06-19T08:57:20.707Z,99.90
2019-06-19T09:00:01.956Z,99.90
2019-06-19T09:02:42.845Z,99.90
2019-06-19T09:05:23.046Z,99.90
2019-06-19T09:08:03.352Z,99.90
2019-06-19T09:10:46.151Z,99.20
2019-06-19T09:13:33.248Z,99.90
2019-06-19T09:16:15.472Z,98.90
2019-06-19T09:18:56.204Z,98.90
2019-06-19T09:21:36.924Z,99.50
2019-06-19T09:24:17.482Z,98.30
2019-06-19T09:26:58.140Z,99.40
2019-06-19T09:29:38.868Z,98.00
2019-06-19T09:32:19.471Z,97.40
2019-06-19T09:35:00.353Z,98.00
2019-06-19T09:37:40.767Z,97.80
2019-06-19T09:40:21.486Z,95.50
2019-06-19T09:43:01.764Z,96.40
2019-06-19T09:45:42.176Z,96.20
2019-06-19T09:48:22.707Z,93.80
2019-06-19T09:51:03.369Z,93.00
2019-06-19T09:53:43.895Z,92.20
2019-06-19T10:00:00.440Z,93.30
2019-06-19T10:02:48.433Z,93.90
2019-06-19T10:05:36.477Z,93.90
2019-06-19T10:08:24.207Z,93.40
2019-06-19T10:11:11.935Z,93.00
2019-06-19T10:13:59.671Z,93.70
2019-06-19T10:16:47.399Z,93.80
2019-06-19T10:19:35.173Z,90.90
2019-06-19T10:22:23.173Z,90.10
2019-06-19T10:25:11.257Z,88.70
2019-06-19T10:27:52.062Z,92.80
2019-06-19T10:30:32.507Z,91.10
2019-06-19T10:33:13.456Z,90.90
2019-06-19T10:35:54.013Z,86.90
2019-06-19T10:38:34.736Z,89.70
2019-06-19T10:41:15.858Z,86.80
2019-06-19T10:43:56.676Z,86.90
2019-06-19T10:46:41.792Z,86.70
2019-06-19T10:49:19.919Z,86.60
2019-06-19T10:52:00.847Z,85.70
2019-06-19T10:54:41.309Z,81.80
2019-06-19T10:57:21.920Z,76.40
2019-06-19T11:00:02.605Z,81.10
2019-06-19T11:02:43.197Z,78.30
2019-06-19T11:05:38.446Z,70.40
2019-06-19T11:08:06.769Z,79.10
2019-06-19T11:10:47.513Z,76.40
2019-06-19T11:13:28.067Z,71.00
2019-06-19T11:16:08.793Z,74.50
2019-06-19T11:18:49.297Z,70.60
2019-06-19T11:21:29.784Z,69.70
2019-06-19T11:24:10.287Z,67.90
2019-06-19T11:26:51.069Z,68.70
2019-06-19T11:29:31.379Z,66.30
2019-06-19T11:32:12.008Z,64.90
2019-06-19T11:34:52.939Z,65.90
2019-06-19T11:37:33.755Z,73.00
2019-06-19T11:40:14.476Z,65.30
2019-06-19T11:42:55.404Z,69.60
2019-06-19T11:45:36.346Z,64.50
2019-06-19T11:48:17.289Z,70.70
2019-06-19T11:50:58.233Z,68.50
2019-06-19T11:53:39.347Z,66.20
2019-06-19T11:56:20.425Z,69.70
2019-06-19T11:59:01.481Z,68.00
2019-06-19T12:01:42.073Z,66.70
2019-06-19T12:04:22.295Z,66.50
2019-06-19T12:07:03.155Z,69.60
2019-06-19T12:09:43.769Z,64.40
2019-06-19T12:12:23.944Z,67.30
2019-06-19T12:15:04.676Z,63.70
2019-06-19T12:17:45.220Z,63.30
2019-06-19T12:20:25.837Z,67.60
2019-06-19T12:23:06.362Z,70.50
2019-06-19T12:25:47.117Z,70.40
2019-06-19T12:28:27.871Z,65.70
2019-06-19T12:31:08.372Z,66.30
2019-06-19T12:33:49.011Z,66.70
2019-06-19T12:36:30.575Z,62.50
2019-06-19T12:39:11.366Z,66.00
2019-06-19T12:41:50.014Z,69.60
2019-06-19T12:44:37.739Z,65.00
2019-06-19T12:47:25.764Z,65.60
2019-06-19T12:50:32.803Z,68.40
2019-06-19T12:53:20.820Z,65.50
2019-06-19T12:56:08.867Z,68.40
2019-06-19T12:58:56.928Z,67.50
2019-06-19T13:01:44.644Z,68.50
2019-06-19T13:04:32.627Z,67.40
2019-06-19T13:07:20.355Z,65.70
2019-06-19T13:10:08.736Z,66.40
2019-06-19T13:12:56.792Z,72.30
2019-06-19T13:15:44.507Z,68.20
2019-06-19T13:18:32.523Z,70.70
2019-06-19T13:21:20.224Z,65.70
2019-06-19T13:24:07.960Z,65.90
2019-06-19T13:26:48.647Z,64.50
2019-06-19T13:29:29.416Z,67.10
2019-06-19T13:32:10.058Z,66.00
2019-06-19T13:34:50.708Z,65.10
2019-06-19T13:37:34.072Z,67.80
2019-06-19T13:40:13.770Z,68.20
2019-06-19T13:42:54.449Z,63.10
2019-06-19T13:45:35.388Z,66.40
2019-06-19T13:48:16.065Z,68.60
2019-06-19T13:50:56.952Z,72.60
2019-06-19T13:53:38.053Z,69.90
2019-06-19T13:56:21.074Z,68.50
2019-06-19T13:59:01.543Z,68.30
2019-06-19T14:01:42.329Z,72.20
2019-06-19T14:04:22.833Z,66.80
2019-06-19T14:07:19.058Z,70.40
2019-06-19T14:09:46.224Z,66.10
2019-06-19T14:12:26.604Z,72.20
2019-06-19T14:15:07.182Z,69.40
2019-06-19T14:17:48.040Z,69.00
2019-06-19T14:20:28.511Z,69.40
2019-06-19T14:23:09.507Z,68.90
2019-06-19T14:25:50.130Z,70.40
2019-06-19T14:28:30.540Z,73.80
2019-06-19T14:31:11.126Z,72.00
2019-06-19T14:33:51.708Z,69.30
2019-06-19T14:36:32.304Z,69.80
2019-06-19T14:39:12.910Z,73.20
2019-06-19T14:41:54.024Z,68.70
2019-06-19T14:44:35.032Z,68.40
2019-06-19T14:47:15.868Z,67.70
2019-06-19T14:49:56.591Z,70.00
2019-06-19T14:52:37.692Z,74.40
2019-06-19T14:55:18.297Z,76.30
2019-06-19T14:57:59.131Z,74.80
2019-06-19T15:00:39.958Z,76.00
2019-06-19T15:03:21.099Z,76.60
2019-06-19T15:06:01.659Z,75.70
2019-06-19T15:08:42.548Z,73.80
2019-06-19T15:11:27.437Z,75.70
2019-06-19T15:14:05.686Z,76.30
2019-06-19T15:16:46.209Z,75.70
2019-06-19T15:19:27.124Z,74.60
2019-06-19T15:22:07.648Z,75.00
2019-06-19T15:24:48.279Z,74.10
2019-06-19T15:27:29.364Z,73.50
2019-06-19T15:30:10.261Z,75.90
2019-06-19T15:32:54.516Z,74.20
2019-06-19T15:35:33.799Z,73.20
2019-06-19T15:38:14.963Z,72.70
2019-06-19T15:40:55.754Z,74.00
2019-06-19T15:43:36.592Z,71.90
2019-06-19T15:46:17.156Z,74.00
2019-06-19T15:48:57.706Z,72.40
2019-06-19T15:51:38.427Z,73.20
2019-06-19T15:54:18.725Z,71.80
2019-06-19T15:56:59.485Z,73.20
2019-06-19T15:59:40.384Z,73.10
2019-06-19T16:02:20.946Z,72.30
2019-06-19T16:05:01.732Z,72.50
2019-06-19T16:07:42.318Z,72.50
2019-06-19T16:10:23.110Z,71.90
2019-06-19T16:13:03.864Z,72.00
2019-06-19T16:15:44.049Z,71.70
2019-06-19T16:18:24.816Z,72.30
2019-06-19T16:21:05.236Z,72.20
2019-06-19T16:23:45.932Z,71.90
2019-06-19T16:26:26.633Z,72.90
2019-06-19T16:29:07.171Z,72.30
2019-06-19T16:31:48.040Z,73.30
2019-06-19T16:34:28.356Z,71.60
2019-06-19T16:37:09.014Z,70.30
2019-06-19T16:39:49.592Z,72.30
2019-06-19T16:42:30.301Z,72.90
2019-06-19T16:45:10.820Z,68.90
2019-06-19T16:47:51.236Z,69.10
2019-06-19T16:50:31.978Z,68.90
2019-06-19T16:53:13.044Z,71.00
2019-06-19T16:55:53.996Z,70.20
2019-06-19T16:58:34.621Z,69.60
2019-06-19T17:01:15.413Z,70.20
2019-06-19T17:03:55.663Z,68.60
2019-06-19T17:06:36.183Z,70.50
2019-06-19T17:09:17.036Z,68.80
2019-06-19T17:11:57.756Z,67.90
2019-06-19T17:14:38.401Z,69.50
2019-06-19T17:17:18.896Z,70.20
2019-06-19T17:19:59.272Z,70.10
2019-06-19T17:22:40.184Z,71.50
2019-06-19T17:25:20.846Z,70.40
2019-06-19T17:28:01.194Z,71.30
2019-06-19T17:30:41.624Z,73.30
2019-06-19T17:33:22.552Z,72.00
2019-06-19T17:36:03.030Z,76.00
2019-06-19T17:38:43.617Z,74.50
2019-06-19T17:41:23.875Z,73.60
2019-06-19T17:44:04.817Z,77.60
2019-06-19T17:46:45.499Z,75.90
2019-06-19T17:49:26.050Z,77.50
2019-06-19T17:52:06.504Z,74.60
2019-06-19T17:54:47.135Z,76.30
2019-06-19T17:57:27.487Z,76.50
2019-06-19T18:00:08.529Z,77.20
2019-06-19T18:02:49.563Z,77.00
2019-06-19T18:05:29.801Z,75.50
2019-06-19T18:08:10.469Z,77.00
2019-06-19T18:10:51.420Z,77.20
2019-06-19T18:13:31.836Z,78.30
2019-06-19T18:16:12.459Z,78.20
2019-06-19T18:18:53.688Z,79.00
2019-06-19T18:21:34.419Z,78.60
2019-06-19T18:24:14.917Z,77.80
2019-06-19T18:26:55.608Z,77.80
2019-06-19T18:29:36.063Z,76.30
2019-06-19T18:32:16.570Z,75.90
2019-06-19T18:34:56.988Z,75.90
2019-06-19T18:37:37.291Z,75.80
2019-06-19T18:40:17.819Z,75.40
2019-06-19T18:42:58.247Z,75.50
2019-06-19T18:45:38.976Z,76.10
2019-06-19T18:48:19.480Z,76.30
2019-06-19T18:51:00.283Z,77.10
2019-06-19T18:53:40.599Z,78.00
2019-06-19T18:56:21.278Z,79.70
2019-06-19T18:59:01.751Z,80.20
2019-06-19T19:01:42.102Z,80.80
2019-06-19T19:04:22.716Z,80.40
2019-06-19T19:07:03.513Z,80.70
2019-06-19T19:09:44.143Z,80.80
2019-06-19T19:12:24.572Z,80.50
2019-06-19T19:15:05.293Z,81.00
2019-06-19T19:17:46.099Z,81.60
2019-06-19T19:20:26.757Z,81.70
2019-06-19T19:23:07.668Z,81.30
2019-06-19T19:25:48.397Z,81.50
2019-06-19T19:28:29.456Z,81.70
2019-06-19T19:31:09.756Z,82.60
2019-06-19T19:33:50.543Z,83.20
2019-06-19T19:36:31.083Z,83.80
2019-06-19T19:39:11.519Z,85.40
2019-06-19T19:41:52.149Z,86.40
2019-06-19T19:44:32.893Z,86.90
2019-06-19T19:47:13.772Z,87.20
2019-06-19T19:49:54.195Z,88.20
2019-06-19T19:52:34.631Z,88.20
2019-06-19T19:55:15.104Z,89.20
2019-06-19T19:57:55.658Z,89.30
2019-06-19T20:00:39.094Z,89.90
2019-06-19T20:03:18.422Z,90.00
2019-06-19T20:05:59.490Z,90.10
2019-06-19T20:08:40.294Z,90.40
2019-06-19T20:11:20.818Z,90.40
2019-06-19T20:14:01.078Z,90.50
2019-06-19T20:16:41.811Z,90.70
2019-06-19T20:19:23.041Z,91.00
2019-06-19T20:22:04.184Z,91.20
2019-06-19T20:24:44.576Z,91.50
2019-06-19T20:27:24.982Z,91.60
2019-06-19T20:30:05.695Z,91.90
2019-06-19T20:32:47.484Z,92.00
2019-06-19T20:35:28.659Z,92.30
2019-06-19T20:38:09.057Z,92.30
2019-06-19T20:41:02.368Z,92.20
2019-06-19T20:43:31.987Z,92.40
2019-06-19T20:46:24.514Z,92.50
2019-06-19T20:48:55.667Z,92.50
2019-06-19T20:51:35.888Z,92.90
2019-06-19T20:54:16.402Z,93.00
2019-06-19T20:56:56.913Z,93.00
2019-06-19T20:59:37.201Z,93.30
2019-06-19T21:02:18.148Z,93.50
2019-06-19T21:04:59.383Z,93.70
2019-06-19T21:07:39.940Z,93.70
2019-06-19T21:10:20.880Z,93.90
2019-06-19T21:13:01.575Z,94.10
2019-06-19T21:15:44.663Z,93.90
2019-06-19T21:18:24.960Z,94.50
2019-06-19T21:21:05.661Z,94.70
2019-06-19T21:23:46.452Z,95.20
2019-06-19T21:26:26.877Z,95.30
2019-06-19T21:29:07.967Z,94.90
2019-06-19T21:31:57.758Z,95.60
2019-06-19T21:34:30.952Z,95.70
2019-06-19T21:37:11.565Z,95.70
2019-06-19T21:39:52.697Z,95.80
2019-06-19T21:42:32.976Z,96.00
2019-06-19T21:45:13.667Z,96.00
2019-06-19T21:47:54.439Z,96.30
2019-06-19T21:50:34.871Z,96.70
2019-06-19T21:53:15.467Z,97.00
2019-06-19T21:55:58.345Z,97.40
2019-06-19T21:58:38.375Z,97.60
2019-06-19T22:01:18.979Z,97.50
2019-06-19T22:03:59.547Z,97.60
2019-06-19T22:06:39.965Z,98.00
2019-06-19T22:09:20.500Z,98.20
2019-06-19T22:12:01.419Z,98.00
2019-06-19T22:14:41.824Z,97.90
2019-06-19T22:17:22.119Z,98.30
2019-06-19T22:20:03.068Z,98.60
2019-06-19T22:22:43.551Z,98.90
2019-06-19T22:25:24.328Z,99.10
2019-06-19T22:28:04.676Z,99.30
2019-06-19T22:30:45.229Z,99.60
2019-06-19T22:33:26.520Z,99.70
2019-06-19T22:36:07.340Z,99.90
2019-06-19T22:38:48.574Z,99.90
2019-06-19T22:41:29.167Z,99.90
2019-06-19T22:44:10.420Z,99.90
2019-06-19T22:46:51.085Z,99.90
2019-06-19T22:49:31.648Z,99.90
2019-06-19T22:52:12.235Z,99.90
2019-06-19T22:54:52.538Z,99.90
2019-06-19T22:57:33.070Z,99.90
2019-06-19T23:00:14.341Z,99.90
2019-06-19T23:03:14.180Z,99.90
2019-06-19T23:05:59.213Z,99.90
2019-06-19T23:08:40.205Z,99.90
2019-06-19T23:11:20.915Z,99.90
2019-06-19T23:14:02.038Z,99.90
2019-06-19T23:16:42.636Z,99.90
2019-06-19T23:19:22.912Z,99.90
2019-06-19T23:22:03.342Z,99.90
2019-06-19T23:24:43.767Z,99.90
2019-06-19T23:27:24.356Z,99.90
2019-06-19T23:30:05.056Z,99.90
2019-06-19T23:32:45.652Z,99.90
2019-06-19T23:35:26.123Z,99.90
2019-06-19T23:38:06.807Z,99.90
2019-06-19T23:40:47.786Z,99.90
2019-06-19T23:43:28.872Z,99.90
2019-06-19T23:46:09.282Z,99.90
2019-06-19T23:48:49.752Z,99.90
2019-06-19T23:51:30.074Z,99.90
2019-06-19T23:54:10.694Z,99.90
2019-06-19T23:56:51.544Z,99.90
2019-06-19T23:59:31.923Z,99.90
